sensor_id;sensor_type;location;lat;lon;timestamp;temperature;humidity
3778;DHT22;1904;50.076;8.660;2023-04-03T00:00:05;6.00;1.00
3778;DHT22;1904;50.076;8.660;2023-04-03T00:02:41;6.00;1.00
3778;DHT22;1904;50.076;8.660;2023-04-03T00:05:23;6.00;1.00
3778;DHT22;1904;50.076;8.660;2023-04-03T00:07:49;6.00;1.00
3778;DHT22;1904;50.076;8.660;2023-04-03T00:10:15;6.00;1.00
3778;DHT22;1904;50.076;8.660;2023-04-03T00:12:41;6.00;1.00
3778;DHT22;1904;50.076;8.660;2023-04-03T00:15:11;6.00;1.00
3778;DHT22;1904;50.076;8.660;2023-04-03T00:17:37;6.00;1.00
3778;DHT22;1904;50.076;8.660;2023-04-03T00:20:05;6.00;1.00
3778;DHT22;1904;50.076;8.660;2023-04-03T00:22:35;6.00;1.00
3778;DHT22;1904;50.076;8.660;2023-04-03T00:25:01;6.00;1.00
3778;DHT22;1904;50.076;8.660;2023-04-03T00:27:29;6.00;1.00
3778;DHT22;1904;50.076;8.660;2023-04-03T00:30:06;6.00;1.00
3778;DHT22;1904;50.076;8.660;2023-04-03T00:32:32;6.10;1.00
3778;DHT22;1904;50.076;8.660;2023-04-03T00:34:58;6.10;1.00
3778;DHT22;1904;50.076;8.660;2023-04-03T00:37:24;6.10;1.00
3778;DHT22;1904;50.076;8.660;2023-04-03T00:39:53;6.00;1.00
3778;DHT22;1904;50.076;8.660;2023-04-03T00:42:19;6.10;1.00
3778;DHT22;1904;50.076;8.660;2023-04-03T00:47:13;6.10;1.00
3778;DHT22;1904;50.076;8.660;2023-04-03T00:49:41;6.10;1.00
3778;DHT22;1904;50.076;8.660;2023-04-03T00:52:08;6.10;1.00
3778;DHT22;1904;50.076;8.660;2023-04-03T00:54:35;6.10;1.00
3778;DHT22;1904;50.076;8.660;2023-04-03T00:57:05;6.10;1.00
3778;DHT22;1904;50.076;8.660;2023-04-03T00:59:32;6.00;1.00
3778;DHT22;1904;50.076;8.660;2023-04-03T01:01:59;6.10;1.00
3778;DHT22;1904;50.076;8.660;2023-04-03T01:04:32;6.10;1.00
3778;DHT22;1904;50.076;8.660;2023-04-03T01:10:08;6.10;1.00
3778;DHT22;1904;50.076;8.660;2023-04-03T01:12:37;6.00;1.00
3778;DHT22;1904;50.076;8.660;2023-04-03T01:15:19;6.00;1.00
3778;DHT22;1904;50.076;8.660;2023-04-03T01:17:54;6.00;1.00
3778;DHT22;1904;50.076;8.660;2023-04-03T01:25:31;6.00;1.00
3778;DHT22;1904;50.076;8.660;2023-04-03T01:28:07;6.00;1.00
3778;DHT22;1904;50.076;8.660;2023-04-03T01:30:34;6.00;1.00
3778;DHT22;1904;50.076;8.660;2023-04-03T01:33:00;6.00;1.00
3778;DHT22;1904;50.076;8.660;2023-04-03T01:35:35;6.00;1.00
3778;DHT22;1904;50.076;8.660;2023-04-03T01:38:17;6.00;1.00
3778;DHT22;1904;50.076;8.660;2023-04-03T01:40:47;6.00;1.00
3778;DHT22;1904;50.076;8.660;2023-04-03T01:43:13;5.90;1.00
3778;DHT22;1904;50.076;8.660;2023-04-03T01:45:38;5.90;1.00
3778;DHT22;1904;50.076;8.660;2023-04-03T01:48:04;5.90;1.00
3778;DHT22;1904;50.076;8.660;2023-04-03T01:50:30;5.80;1.00
3778;DHT22;1904;50.076;8.660;2023-04-03T01:52:56;5.90;1.00
3778;DHT22;1904;50.076;8.660;2023-04-03T01:55:21;5.90;1.00
3778;DHT22;1904;50.076;8.660;2023-04-03T01:57:47;5.90;1.00
3778;DHT22;1904;50.076;8.660;2023-04-03T02:00:17;5.90;1.00
3778;DHT22;1904;50.076;8.660;2023-04-03T02:02:43;5.90;1.00
3778;DHT22;1904;50.076;8.660;2023-04-03T02:05:09;5.90;1.00
3778;DHT22;1904;50.076;8.660;2023-04-03T02:07:34;5.90;1.00
3778;DHT22;1904;50.076;8.660;2023-04-03T02:10:00;5.90;1.00
3778;DHT22;1904;50.076;8.660;2023-04-03T02:12:25;5.90;1.00
3778;DHT22;1904;50.076;8.660;2023-04-03T02:14:53;5.90;1.00
3778;DHT22;1904;50.076;8.660;2023-04-03T02:17:19;6.00;1.00
3778;DHT22;1904;50.076;8.660;2023-04-03T02:19:44;6.00;1.00
3778;DHT22;1904;50.076;8.660;2023-04-03T02:22:11;6.00;1.00
3778;DHT22;1904;50.076;8.660;2023-04-03T02:24:47;6.00;1.00
3778;DHT22;1904;50.076;8.660;2023-04-03T02:30:05;6.00;1.00
3778;DHT22;1904;50.076;8.660;2023-04-03T02:32:42;6.00;1.00
3778;DHT22;1904;50.076;8.660;2023-04-03T02:41:12;6.00;1.00
3778;DHT22;1904;50.076;8.660;2023-04-03T02:43:38;6.00;1.00
3778;DHT22;1904;50.076;8.660;2023-04-03T02:46:04;6.00;1.00
3778;DHT22;1904;50.076;8.660;2023-04-03T02:48:30;6.00;1.00
3778;DHT22;1904;50.076;8.660;2023-04-03T02:50:55;6.00;1.00
3778;DHT22;1904;50.076;8.660;2023-04-03T02:53:29;6.00;1.00
3778;DHT22;1904;50.076;8.660;2023-04-03T02:55:55;6.00;1.00
3778;DHT22;1904;50.076;8.660;2023-04-03T03:01:35;6.00;1.00
3778;DHT22;1904;50.076;8.660;2023-04-03T03:04:05;5.90;1.00
3778;DHT22;1904;50.076;8.660;2023-04-03T03:06:35;5.90;1.00
3778;DHT22;1904;50.076;8.660;2023-04-03T03:09:05;5.90;1.00
3778;DHT22;1904;50.076;8.660;2023-04-03T03:11:35;5.90;1.00
3778;DHT22;1904;50.076;8.660;2023-04-03T03:17:04;5.70;1.00
3778;DHT22;1904;50.076;8.660;2023-04-03T03:19:35;5.70;1.00
3778;DHT22;1904;50.076;8.660;2023-04-03T03:22:05;5.70;1.00
3778;DHT22;1904;50.076;8.660;2023-04-03T03:24:35;5.70;1.00
3778;DHT22;1904;50.076;8.660;2023-04-03T03:27:05;5.70;1.00
3778;DHT22;1904;50.076;8.660;2023-04-03T03:29:35;5.70;1.00
3778;DHT22;1904;50.076;8.660;2023-04-03T03:32:05;5.60;1.00
3778;DHT22;1904;50.076;8.660;2023-04-03T03:34:35;5.50;1.00
3778;DHT22;1904;50.076;8.660;2023-04-03T03:37:05;5.50;1.00
3778;DHT22;1904;50.076;8.660;2023-04-03T03:39:35;5.40;1.00
3778;DHT22;1904;50.076;8.660;2023-04-03T03:42:05;5.40;1.00
3778;DHT22;1904;50.076;8.660;2023-04-03T03:44:31;5.40;1.00
3778;DHT22;1904;50.076;8.660;2023-04-03T03:46:57;5.30;1.00
3778;DHT22;1904;50.076;8.660;2023-04-03T03:49:22;5.30;1.00
3778;DHT22;1904;50.076;8.660;2023-04-03T03:51:48;5.20;1.00
3778;DHT22;1904;50.076;8.660;2023-04-03T03:54:17;5.20;1.00
3778;DHT22;1904;50.076;8.660;2023-04-03T03:56:43;5.10;1.00
3778;DHT22;1904;50.076;8.660;2023-04-03T03:59:10;5.10;1.00
3778;DHT22;1904;50.076;8.660;2023-04-03T04:04:29;5.00;1.00
3778;DHT22;1904;50.076;8.660;2023-04-03T04:12:55;4.70;1.00
3778;DHT22;1904;50.076;8.660;2023-04-03T04:15:20;4.70;1.00
3778;DHT22;1904;50.076;8.660;2023-04-03T04:17:47;4.60;1.00
3778;DHT22;1904;50.076;8.660;2023-04-03T04:20:13;4.60;1.00
3778;DHT22;1904;50.076;8.660;2023-04-03T04:22:38;4.60;1.00
3778;DHT22;1904;50.076;8.660;2023-04-03T04:25:05;4.60;1.00
3778;DHT22;1904;50.076;8.660;2023-04-03T04:30:25;4.40;1.00
3778;DHT22;1904;50.076;8.660;2023-04-03T04:32:51;4.40;1.00
3778;DHT22;1904;50.076;8.660;2023-04-03T04:35:29;4.40;1.00
3778;DHT22;1904;50.076;8.660;2023-04-03T04:49:53;4.30;1.00
3778;DHT22;1904;50.076;8.660;2023-04-03T04:52:23;4.30;1.00
3778;DHT22;1904;50.076;8.660;2023-04-03T04:54:49;4.20;1.00
3778;DHT22;1904;50.076;8.660;2023-04-03T05:00:18;4.20;1.00
3778;DHT22;1904;50.076;8.660;2023-04-03T05:02:43;4.20;1.00
3778;DHT22;1904;50.076;8.660;2023-04-03T05:05:11;4.10;1.00
3778;DHT22;1904;50.076;8.660;2023-04-03T05:07:41;4.10;1.00
3778;DHT22;1904;50.076;8.660;2023-04-03T05:13:23;4.00;1.00
3778;DHT22;1904;50.076;8.660;2023-04-03T05:15:59;4.00;1.00
3778;DHT22;1904;50.076;8.660;2023-04-03T05:21:13;3.90;1.00
3778;DHT22;1904;50.076;8.660;2023-04-03T05:23:41;3.90;1.00
3778;DHT22;1904;50.076;8.660;2023-04-03T05:26:23;4.00;1.00
3778;DHT22;1904;50.076;8.660;2023-04-03T05:31:52;4.00;1.00
3778;DHT22;1904;50.076;8.660;2023-04-03T05:34:18;4.10;1.00
3778;DHT22;1904;50.076;8.660;2023-04-03T05:39:46;4.10;1.00
3778;DHT22;1904;50.076;8.660;2023-04-03T05:45:15;4.20;1.00
3778;DHT22;1904;50.076;8.660;2023-04-03T05:47:40;4.10;1.00
3778;DHT22;1904;50.076;8.660;2023-04-03T05:50:11;4.10;1.00
3778;DHT22;1904;50.076;8.660;2023-04-03T06:01:35;4.00;1.00
3778;DHT22;1904;50.076;8.660;2023-04-03T06:13:04;3.90;1.00
3778;DHT22;1904;50.076;8.660;2023-04-03T06:18:29;3.90;1.00
3778;DHT22;1904;50.076;8.660;2023-04-03T06:20:59;3.90;1.00
3778;DHT22;1904;50.076;8.660;2023-04-03T06:23:35;3.90;1.00
3778;DHT22;1904;50.076;8.660;2023-04-03T06:26:05;3.90;1.00
3778;DHT22;1904;50.076;8.660;2023-04-03T06:28:47;3.90;1.00
3778;DHT22;1904;50.076;8.660;2023-04-03T06:31:13;3.90;1.00
3778;DHT22;1904;50.076;8.660;2023-04-03T06:33:41;3.90;1.00
3778;DHT22;1904;50.076;8.660;2023-04-03T06:36:07;3.90;1.00
3778;DHT22;1904;50.076;8.660;2023-04-03T06:41:32;3.90;1.00
3778;DHT22;1904;50.076;8.660;2023-04-03T06:43:59;4.00;1.00
3778;DHT22;1904;50.076;8.660;2023-04-03T06:46:29;4.00;1.00
3778;DHT22;1904;50.076;8.660;2023-04-03T06:49:12;4.00;1.00
3778;DHT22;1904;50.076;8.660;2023-04-03T06:57:47;4.20;1.00
3778;DHT22;1904;50.076;8.660;2023-04-03T07:00:13;4.20;1.00
3778;DHT22;1904;50.076;8.660;2023-04-03T07:08:54;4.30;1.00
3778;DHT22;1904;50.076;8.660;2023-04-03T07:11:19;4.40;1.00
3778;DHT22;1904;50.076;8.660;2023-04-03T07:13:45;4.50;1.00
3778;DHT22;1904;50.076;8.660;2023-04-03T07:16:11;4.50;1.00
3778;DHT22;1904;50.076;8.660;2023-04-03T07:18:36;4.60;1.00
3778;DHT22;1904;50.076;8.660;2023-04-03T07:21:02;4.60;1.00
3778;DHT22;1904;50.076;8.660;2023-04-03T07:23:29;4.60;1.00
3778;DHT22;1904;50.076;8.660;2023-04-03T07:25:55;4.70;1.00
3778;DHT22;1904;50.076;8.660;2023-04-03T07:28:21;4.70;1.00
3778;DHT22;1904;50.076;8.660;2023-04-03T07:30:48;4.80;1.00
3778;DHT22;1904;50.076;8.660;2023-04-03T07:33:15;4.80;1.00
3778;DHT22;1904;50.076;8.660;2023-04-03T07:35:42;4.90;1.00
3778;DHT22;1904;50.076;8.660;2023-04-03T07:38:08;5.00;1.00
3778;DHT22;1904;50.076;8.660;2023-04-03T07:40:33;5.10;1.00
3778;DHT22;1904;50.076;8.660;2023-04-03T07:43:00;5.20;1.00
3778;DHT22;1904;50.076;8.660;2023-04-03T07:45:26;5.20;1.00
3778;DHT22;1904;50.076;8.660;2023-04-03T07:47:51;5.20;1.00
3778;DHT22;1904;50.076;8.660;2023-04-03T07:50:18;5.20;1.00
3778;DHT22;1904;50.076;8.660;2023-04-03T07:52:43;5.40;1.00
3778;DHT22;1904;50.076;8.660;2023-04-03T07:55:09;5.50;1.00
3778;DHT22;1904;50.076;8.660;2023-04-03T07:57:35;5.50;1.00
3778;DHT22;1904;50.076;8.660;2023-04-03T08:00:02;5.50;1.00
3778;DHT22;1904;50.076;8.660;2023-04-03T08:02:27;5.60;1.00
3778;DHT22;1904;50.076;8.660;2023-04-03T08:04:53;6.40;1.00
3778;DHT22;1904;50.076;8.660;2023-04-03T08:07:18;5.60;1.00
3778;DHT22;1904;50.076;8.660;2023-04-03T08:09:44;5.60;1.00
3778;DHT22;1904;50.076;8.660;2023-04-03T08:12:10;5.70;1.00
3778;DHT22;1904;50.076;8.660;2023-04-03T08:14:37;5.80;1.00
3778;DHT22;1904;50.076;8.660;2023-04-03T08:17:02;5.80;1.00
3778;DHT22;1904;50.076;8.660;2023-04-03T08:19:30;5.80;1.00
3778;DHT22;1904;50.076;8.660;2023-04-03T08:21:56;5.80;1.00
3778;DHT22;1904;50.076;8.660;2023-04-03T08:24:24;5.90;1.00
3778;DHT22;1904;50.076;8.660;2023-04-03T08:26:49;6.00;1.00
3778;DHT22;1904;50.076;8.660;2023-04-03T08:29:15;6.80;1.00
3778;DHT22;1904;50.076;8.660;2023-04-03T08:31:40;6.10;1.00
3778;DHT22;1904;50.076;8.660;2023-04-03T08:34:06;6.10;1.00
3778;DHT22;1904;50.076;8.660;2023-04-03T08:36:31;6.80;1.00
3778;DHT22;1904;50.076;8.660;2023-04-03T08:38:57;6.90;1.00
3778;DHT22;1904;50.076;8.660;2023-04-03T08:44:00;6.10;1.00
3778;DHT22;1904;50.076;8.660;2023-04-03T08:47:10;6.10;1.00
3778;DHT22;1904;50.076;8.660;2023-04-03T08:49:24;6.20;1.00
3778;DHT22;1904;50.076;8.660;2023-04-03T08:51:51;6.20;1.00
3778;DHT22;1904;50.076;8.660;2023-04-03T08:54:22;6.40;1.00
3778;DHT22;1904;50.076;8.660;2023-04-03T08:56:48;6.70;1.00
3778;DHT22;1904;50.076;8.660;2023-04-03T08:59:16;6.90;1.00
3778;DHT22;1904;50.076;8.660;2023-04-03T09:01:42;6.90;1.00
3778;DHT22;1904;50.076;8.660;2023-04-03T09:04:12;6.80;1.00
3778;DHT22;1904;50.076;8.660;2023-04-03T09:06:38;6.70;1.00
3778;DHT22;1904;50.076;8.660;2023-04-03T09:14:29;7.00;1.00
3778;DHT22;1904;50.076;8.660;2023-04-03T09:17:00;7.10;1.00
3778;DHT22;1904;50.076;8.660;2023-04-03T09:21:57;7.40;1.00
3778;DHT22;1904;50.076;8.660;2023-04-03T09:24:23;7.50;1.00
3778;DHT22;1904;50.076;8.660;2023-04-03T09:26:53;7.50;1.00
3778;DHT22;1904;50.076;8.660;2023-04-03T09:29:22;7.60;1.00
3778;DHT22;1904;50.076;8.660;2023-04-03T09:31:56;7.70;1.00
3778;DHT22;1904;50.076;8.660;2023-04-03T09:34:24;7.90;1.00
3778;DHT22;1904;50.076;8.660;2023-04-03T09:36:53;7.80;1.00
3778;DHT22;1904;50.076;8.660;2023-04-03T09:39:23;7.90;1.00
3778;DHT22;1904;50.076;8.660;2023-04-03T09:41:59;8.00;1.00
3778;DHT22;1904;50.076;8.660;2023-04-03T09:44:27;8.30;1.00
3778;DHT22;1904;50.076;8.660;2023-04-03T09:46:52;9.00;1.00
3778;DHT22;1904;50.076;8.660;2023-04-03T09:49:18;9.00;1.00
3778;DHT22;1904;50.076;8.660;2023-04-03T09:51:44;9.10;1.00
3778;DHT22;1904;50.076;8.660;2023-04-03T09:54:34;9.10;1.00
3778;DHT22;1904;50.076;8.660;2023-04-03T09:57:01;8.90;1.00
3778;DHT22;1904;50.076;8.660;2023-04-03T09:59:29;8.90;1.00
3778;DHT22;1904;50.076;8.660;2023-04-03T10:01:57;9.20;1.00
3778;DHT22;1904;50.076;8.660;2023-04-03T10:04:23;9.50;1.00
3778;DHT22;1904;50.076;8.660;2023-04-03T10:06:53;9.40;1.00
3778;DHT22;1904;50.076;8.660;2023-04-03T10:14:34;9.10;1.00
3778;DHT22;1904;50.076;8.660;2023-04-03T10:22:15;9.00;1.00
3778;DHT22;1904;50.076;8.660;2023-04-03T10:24:58;9.00;1.00
3778;DHT22;1904;50.076;8.660;2023-04-03T10:30:02;8.90;1.00
3778;DHT22;1904;50.076;8.660;2023-04-03T10:38:01;9.30;1.00
3778;DHT22;1904;50.076;8.660;2023-04-03T10:40:39;9.20;1.00
3778;DHT22;1904;50.076;8.660;2023-04-03T10:45:49;9.20;1.00
3778;DHT22;1904;50.076;8.660;2023-04-03T10:48:38;9.10;1.00
3778;DHT22;1904;50.076;8.660;2023-04-03T10:53:39;9.20;1.00
3778;DHT22;1904;50.076;8.660;2023-04-03T10:56:08;9.30;1.00
3778;DHT22;1904;50.076;8.660;2023-04-03T10:58:39;9.40;1.00
3778;DHT22;1904;50.076;8.660;2023-04-03T11:01:06;9.30;1.00
3778;DHT22;1904;50.076;8.660;2023-04-03T11:03:36;9.30;1.00
3778;DHT22;1904;50.076;8.660;2023-04-03T11:06:07;9.40;1.00
3778;DHT22;1904;50.076;8.660;2023-04-03T11:11:06;9.40;1.00
3778;DHT22;1904;50.076;8.660;2023-04-03T11:13:33;9.30;1.00
3778;DHT22;1904;50.076;8.660;2023-04-03T11:15:59;9.40;1.00
3778;DHT22;1904;50.076;8.660;2023-04-03T11:18:35;9.20;1.00
3778;DHT22;1904;50.076;8.660;2023-04-03T11:21:04;9.10;1.00
3778;DHT22;1904;50.076;8.660;2023-04-03T11:23:34;9.10;1.00
3778;DHT22;1904;50.076;8.660;2023-04-03T11:26:08;9.20;1.00
3778;DHT22;1904;50.076;8.660;2023-04-03T11:28:35;9.10;1.00
3778;DHT22;1904;50.076;8.660;2023-04-03T11:36:08;9.10;1.00
3778;DHT22;1904;50.076;8.660;2023-04-03T11:38:35;9.10;1.00
3778;DHT22;1904;50.076;8.660;2023-04-03T11:41:04;9.40;1.00
3778;DHT22;1904;50.076;8.660;2023-04-03T11:43:32;9.40;1.00
3778;DHT22;1904;50.076;8.660;2023-04-03T11:45:58;9.60;1.00
3778;DHT22;1904;50.076;8.660;2023-04-03T11:51:02;9.40;1.00
3778;DHT22;1904;50.076;8.660;2023-04-03T11:53:47;9.50;1.00
3778;DHT22;1904;50.076;8.660;2023-04-03T12:01:46;9.40;1.00
3778;DHT22;1904;50.076;8.660;2023-04-03T12:04:12;9.30;1.00
3778;DHT22;1904;50.076;8.660;2023-04-03T12:09:22;9.40;1.00
3778;DHT22;1904;50.076;8.660;2023-04-03T12:11:47;9.30;1.00
3778;DHT22;1904;50.076;8.660;2023-04-03T12:14:16;9.30;1.00
3778;DHT22;1904;50.076;8.660;2023-04-03T12:16:47;9.40;1.00
3778;DHT22;1904;50.076;8.660;2023-04-03T12:24:25;9.80;1.00
3778;DHT22;1904;50.076;8.660;2023-04-03T12:29:33;9.70;1.00
3778;DHT22;1904;50.076;8.660;2023-04-03T12:34:48;9.90;1.00
3778;DHT22;1904;50.076;8.660;2023-04-03T12:37:30;10.00;1.00
3778;DHT22;1904;50.076;8.660;2023-04-03T12:45:26;10.20;1.00
3778;DHT22;1904;50.076;8.660;2023-04-03T12:47:53;10.30;1.00
3778;DHT22;1904;50.076;8.660;2023-04-03T12:50:21;10.40;1.00
3778;DHT22;1904;50.076;8.660;2023-04-03T12:52:54;10.60;1.00
3778;DHT22;1904;50.076;8.660;2023-04-03T12:55:21;10.60;1.00
3778;DHT22;1904;50.076;8.660;2023-04-03T12:57:47;10.60;1.00
3778;DHT22;1904;50.076;8.660;2023-04-03T13:00:25;10.40;1.00
3778;DHT22;1904;50.076;8.660;2023-04-03T13:02:56;10.30;1.00
3778;DHT22;1904;50.076;8.660;2023-04-03T13:05:21;10.30;1.00
3778;DHT22;1904;50.076;8.660;2023-04-03T13:07:49;10.30;1.00
3778;DHT22;1904;50.076;8.660;2023-04-03T13:10:16;10.40;1.00
3778;DHT22;1904;50.076;8.660;2023-04-03T13:12:55;10.20;1.00
3778;DHT22;1904;50.076;8.660;2023-04-03T13:15:23;10.20;1.00
3778;DHT22;1904;50.076;8.660;2023-04-03T13:17:50;10.10;1.00
3778;DHT22;1904;50.076;8.660;2023-04-03T13:22:56;10.20;1.00
3778;DHT22;1904;50.076;8.660;2023-04-03T13:25:24;10.30;1.00
3778;DHT22;1904;50.076;8.660;2023-04-03T13:27:51;10.60;1.00
3778;DHT22;1904;50.076;8.660;2023-04-03T13:30:30;10.60;1.00
3778;DHT22;1904;50.076;8.660;2023-04-03T13:32:56;10.50;1.00
3778;DHT22;1904;50.076;8.660;2023-04-03T13:35:30;10.50;1.00
3778;DHT22;1904;50.076;8.660;2023-04-03T13:37:57;10.40;1.00
3778;DHT22;1904;50.076;8.660;2023-04-03T13:40:23;10.30;1.00
3778;DHT22;1904;50.076;8.660;2023-04-03T13:43:16;10.10;1.00
3778;DHT22;1904;50.076;8.660;2023-04-03T13:48:46;10.10;1.00
3778;DHT22;1904;50.076;8.660;2023-04-03T13:57:18;10.60;1.00
3778;DHT22;1904;50.076;8.660;2023-04-03T14:02:42;10.80;1.00
3778;DHT22;1904;50.076;8.660;2023-04-03T14:08:12;10.70;1.00
3778;DHT22;1904;50.076;8.660;2023-04-03T14:19:29;10.50;1.00
3778;DHT22;1904;50.076;8.660;2023-04-03T14:21:55;10.30;1.00
3778;DHT22;1904;50.076;8.660;2023-04-03T14:27:34;10.10;1.00
3778;DHT22;1904;50.076;8.660;2023-04-03T14:30:20;10.30;1.00
3778;DHT22;1904;50.076;8.660;2023-04-03T14:44:49;10.10;1.00
3778;DHT22;1904;50.076;8.660;2023-04-03T14:50:33;10.20;1.00
3778;DHT22;1904;50.076;8.660;2023-04-03T14:59:04;10.40;1.00
3778;DHT22;1904;50.076;8.660;2023-04-03T15:07:41;10.90;1.00
3778;DHT22;1904;50.076;8.660;2023-04-03T15:13:10;12.40;1.00
3778;DHT22;1904;50.076;8.660;2023-04-03T15:15:48;13.60;1.00
3778;DHT22;1904;50.076;8.660;2023-04-03T15:21:02;14.90;1.00
3778;DHT22;1904;50.076;8.660;2023-04-03T15:23:42;15.90;1.00
3778;DHT22;1904;50.076;8.660;2023-04-03T15:26:12;16.50;1.00
3778;DHT22;1904;50.076;8.660;2023-04-03T15:31:25;17.60;1.00
3778;DHT22;1904;50.076;8.660;2023-04-03T15:33:51;17.70;1.00
3778;DHT22;1904;50.076;8.660;2023-04-03T15:36:30;17.90;1.00
3778;DHT22;1904;50.076;8.660;2023-04-03T15:41:58;18.60;1.00
3778;DHT22;1904;50.076;8.660;2023-04-03T15:47:24;20.10;1.00
3778;DHT22;1904;50.076;8.660;2023-04-03T15:49:50;20.60;1.00
3778;DHT22;1904;50.076;8.660;2023-04-03T15:52:18;20.20;1.00
3778;DHT22;1904;50.076;8.660;2023-04-03T15:54:54;20.50;1.00
3778;DHT22;1904;50.076;8.660;2023-04-03T15:57:36;20.20;1.00
3778;DHT22;1904;50.076;8.660;2023-04-03T16:03:05;19.10;1.00
3778;DHT22;1904;50.076;8.660;2023-04-03T16:05:42;18.90;1.00
3778;DHT22;1904;50.076;8.660;2023-04-03T16:11:10;18.10;1.00
3778;DHT22;1904;50.076;8.660;2023-04-03T16:13:42;18.40;1.00
3778;DHT22;1904;50.076;8.660;2023-04-03T16:21:48;19.10;1.00
3778;DHT22;1904;50.076;8.660;2023-04-03T16:24:13;19.70;1.00
3778;DHT22;1904;50.076;8.660;2023-04-03T16:29:42;20.50;1.00
3778;DHT22;1904;50.076;8.660;2023-04-03T16:32:18;20.70;1.00
3778;DHT22;1904;50.076;8.660;2023-04-03T16:34:48;20.50;1.00
3778;DHT22;1904;50.076;8.660;2023-04-03T16:40:16;19.70;1.00
3778;DHT22;1904;50.076;8.660;2023-04-03T17:03:51;18.40;1.00
3778;DHT22;1904;50.076;8.660;2023-04-03T17:06:17;16.40;1.00
3778;DHT22;1904;50.076;8.660;2023-04-03T17:08:43;15.00;1.00
3778;DHT22;1904;50.076;8.660;2023-04-03T17:14:12;12.90;1.00
3778;DHT22;1904;50.076;8.660;2023-04-03T17:16:38;12.00;1.00
3778;DHT22;1904;50.076;8.660;2023-04-03T17:19:18;11.10;1.00
3778;DHT22;1904;50.076;8.660;2023-04-03T17:31:08;8.80;1.00
3778;DHT22;1904;50.076;8.660;2023-04-03T17:33:48;8.50;1.00
3778;DHT22;1904;50.076;8.660;2023-04-03T17:39:24;7.90;1.00
3778;DHT22;1904;50.076;8.660;2023-04-03T17:42:06;7.80;1.00
3778;DHT22;1904;50.076;8.660;2023-04-03T17:44:36;7.60;1.00
3778;DHT22;1904;50.076;8.660;2023-04-03T17:47:06;7.40;1.00
3778;DHT22;1904;50.076;8.660;2023-04-03T17:53:00;7.20;1.00
3778;DHT22;1904;50.076;8.660;2023-04-03T17:55:42;7.00;1.00
3778;DHT22;1904;50.076;8.660;2023-04-03T17:58:42;6.90;1.00
3778;DHT22;1904;50.076;8.660;2023-04-03T18:01:26;6.90;1.00
3778;DHT22;1904;50.076;8.660;2023-04-03T18:03:57;6.80;1.00
3778;DHT22;1904;50.076;8.660;2023-04-03T18:06:26;6.70;1.00
3778;DHT22;1904;50.076;8.660;2023-04-03T18:09:09;6.70;1.00
3778;DHT22;1904;50.076;8.660;2023-04-03T18:11:44;6.50;1.00
3778;DHT22;1904;50.076;8.660;2023-04-03T18:14:26;6.40;1.00
3778;DHT22;1904;50.076;8.660;2023-04-03T18:17:00;6.30;1.00
3778;DHT22;1904;50.076;8.660;2023-04-03T18:19:26;6.30;1.00
3778;DHT22;1904;50.076;8.660;2023-04-03T18:22:14;6.20;1.00
3778;DHT22;1904;50.076;8.660;2023-04-03T18:25:12;6.20;1.00
3778;DHT22;1904;50.076;8.660;2023-04-03T18:27:43;6.00;1.00
3778;DHT22;1904;50.076;8.660;2023-04-03T18:30:22;5.90;1.00
3778;DHT22;1904;50.076;8.660;2023-04-03T18:33:06;5.80;1.00
3778;DHT22;1904;50.076;8.660;2023-04-03T18:35:42;5.80;1.00
3778;DHT22;1904;50.076;8.660;2023-04-03T18:38:24;5.80;1.00
3778;DHT22;1904;50.076;8.660;2023-04-03T18:40:51;5.60;1.00
3778;DHT22;1904;50.076;8.660;2023-04-03T18:43:17;5.60;1.00
3778;DHT22;1904;50.076;8.660;2023-04-03T18:46:18;5.50;1.00
3778;DHT22;1904;50.076;8.660;2023-04-03T18:48:55;5.50;1.00
3778;DHT22;1904;50.076;8.660;2023-04-03T18:51:27;5.40;1.00
3778;DHT22;1904;50.076;8.660;2023-04-03T18:54:07;5.30;1.00
3778;DHT22;1904;50.076;8.660;2023-04-03T18:56:42;5.30;1.00
3778;DHT22;1904;50.076;8.660;2023-04-03T19:02:36;5.30;1.00
3778;DHT22;1904;50.076;8.660;2023-04-03T19:05:24;5.20;1.00
3778;DHT22;1904;50.076;8.660;2023-04-03T19:07:54;5.20;1.00
3778;DHT22;1904;50.076;8.660;2023-04-03T19:10:48;5.10;1.00
3778;DHT22;1904;50.076;8.660;2023-04-03T19:16:43;5.00;1.00
3778;DHT22;1904;50.076;8.660;2023-04-03T19:19:18;5.00;1.00
3778;DHT22;1904;50.076;8.660;2023-04-03T19:21:49;5.00;1.00
3778;DHT22;1904;50.076;8.660;2023-04-03T19:24:36;4.90;1.00
3778;DHT22;1904;50.076;8.660;2023-04-03T19:27:06;4.90;1.00
3778;DHT22;1904;50.076;8.660;2023-04-03T19:32:42;4.90;1.00
3778;DHT22;1904;50.076;8.660;2023-04-03T19:35:18;4.80;1.00
3778;DHT22;1904;50.076;8.660;2023-04-03T19:37:44;4.70;1.00
3778;DHT22;1904;50.076;8.660;2023-04-03T19:40:15;4.70;1.00
3778;DHT22;1904;50.076;8.660;2023-04-03T19:42:42;4.70;1.00
3778;DHT22;1904;50.076;8.660;2023-04-03T19:45:10;4.60;1.00
3778;DHT22;1904;50.076;8.660;2023-04-03T19:47:42;4.60;1.00
3778;DHT22;1904;50.076;8.660;2023-04-03T19:50:12;4.60;1.00
3778;DHT22;1904;50.076;8.660;2023-04-03T19:52:39;4.50;1.00
3778;DHT22;1904;50.076;8.660;2023-04-03T19:55:05;4.50;1.00
3778;DHT22;1904;50.076;8.660;2023-04-03T19:57:31;4.50;1.00
3778;DHT22;1904;50.076;8.660;2023-04-03T20:00:00;4.40;1.00
3778;DHT22;1904;50.076;8.660;2023-04-03T20:02:30;4.40;1.00
3778;DHT22;1904;50.076;8.660;2023-04-03T20:05:00;4.30;1.00
3778;DHT22;1904;50.076;8.660;2023-04-03T20:07:30;4.20;1.00
3778;DHT22;1904;50.076;8.660;2023-04-03T20:10:13;4.20;1.00
3778;DHT22;1904;50.076;8.660;2023-04-03T20:12:54;4.20;1.00
3778;DHT22;1904;50.076;8.660;2023-04-03T20:15:24;4.10;1.00
3778;DHT22;1904;50.076;8.660;2023-04-03T20:17:54;4.10;1.00
3778;DHT22;1904;50.076;8.660;2023-04-03T20:20:24;4.10;1.00
3778;DHT22;1904;50.076;8.660;2023-04-03T20:22:57;4.00;1.00
3778;DHT22;1904;50.076;8.660;2023-04-03T20:25:30;4.10;1.00
3778;DHT22;1904;50.076;8.660;2023-04-03T20:28:00;4.00;1.00
3778;DHT22;1904;50.076;8.660;2023-04-03T20:30:54;4.00;1.00
3778;DHT22;1904;50.076;8.660;2023-04-03T20:33:22;3.90;1.00
3778;DHT22;1904;50.076;8.660;2023-04-03T20:36:06;3.90;1.00
3778;DHT22;1904;50.076;8.660;2023-04-03T20:38:36;3.90;1.00
3778;DHT22;1904;50.076;8.660;2023-04-03T20:41:07;3.90;1.00
3778;DHT22;1904;50.076;8.660;2023-04-03T20:47:12;3.80;1.00
3778;DHT22;1904;50.076;8.660;2023-04-03T20:53:07;3.60;1.00
3778;DHT22;1904;50.076;8.660;2023-04-03T20:56:08;3.50;1.00
3778;DHT22;1904;50.076;8.660;2023-04-03T20:59:00;3.50;1.00
3778;DHT22;1904;50.076;8.660;2023-04-03T21:01:31;3.50;1.00
3778;DHT22;1904;50.076;8.660;2023-04-03T21:19:11;3.10;1.00
3778;DHT22;1904;50.076;8.660;2023-04-03T21:21:42;3.10;1.00
3778;DHT22;1904;50.076;8.660;2023-04-03T21:24:18;3.00;1.00
3778;DHT22;1904;50.076;8.660;2023-04-03T21:27:00;2.90;1.00
3778;DHT22;1904;50.076;8.660;2023-04-03T21:29:42;2.90;1.00
3778;DHT22;1904;50.076;8.660;2023-04-03T21:32:18;2.80;1.00
3778;DHT22;1904;50.076;8.660;2023-04-03T21:34:54;2.80;1.00
3778;DHT22;1904;50.076;8.660;2023-04-03T21:40:30;2.80;1.00
3778;DHT22;1904;50.076;8.660;2023-04-03T21:43:06;2.70;1.00
3778;DHT22;1904;50.076;8.660;2023-04-03T21:45:32;2.70;1.00
3778;DHT22;1904;50.076;8.660;2023-04-03T21:51:01;2.60;1.00
3778;DHT22;1904;50.076;8.660;2023-04-03T21:53:36;2.60;1.00
3778;DHT22;1904;50.076;8.660;2023-04-03T21:56:06;2.60;1.00
3778;DHT22;1904;50.076;8.660;2023-04-03T21:58:36;2.50;1.00
3778;DHT22;1904;50.076;8.660;2023-04-03T22:01:12;2.50;1.00
3778;DHT22;1904;50.076;8.660;2023-04-03T22:03:39;2.50;1.00
3778;DHT22;1904;50.076;8.660;2023-04-03T22:06:06;2.40;1.00
3778;DHT22;1904;50.076;8.660;2023-04-03T22:08:36;2.40;1.00
3778;DHT22;1904;50.076;8.660;2023-04-03T22:11:05;2.40;1.00
3778;DHT22;1904;50.076;8.660;2023-04-03T22:16:20;2.30;1.00
3778;DHT22;1904;50.076;8.660;2023-04-03T22:18:48;2.30;1.00
3778;DHT22;1904;50.076;8.660;2023-04-03T22:24:13;2.20;1.00
3778;DHT22;1904;50.076;8.660;2023-04-03T22:26:42;2.10;1.00
3778;DHT22;1904;50.076;8.660;2023-04-03T22:29:09;2.10;1.00
3778;DHT22;1904;50.076;8.660;2023-04-03T22:31:34;2.00;1.00
3778;DHT22;1904;50.076;8.660;2023-04-03T22:34:01;2.00;1.00
3778;DHT22;1904;50.076;8.660;2023-04-03T22:36:29;2.00;1.00